Time;durP1;ratioP1;P1;durP2;ratioP2;P2;SDS_P1;SDS_P2;PMS_P1;PMS_P2;Temp;Humidity;BMP_temperature;BMP_pressure;BME280_temperature;BME280_humidity;BME280_pressure;Samples;Min_cycle;Max_cycle;Signal;HPM_P1;HPM_P2
2021/01/22 00:01:05;;;;;;;57.90;28.90;;;;;;;4.31;78.99;98949.86;1697478;83;27292;-70
2021/01/22 00:03:31;;;;;;;55.90;28.98;;;;;;;4.34;78.93;98951.88;1694879;83;21226;-68
2021/01/22 00:05:56;;;;;;;57.35;29.12;;;;;;;4.33;78.93;98943.19;1693650;83;27152;-68
2021/01/22 00:08:22;;;;;;;57.73;29.57;;;;;;;4.25;78.72;98947.83;1701756;83;24721;-69
2021/01/22 00:10:48;;;;;;;60.17;29.92;;;;;;;4.29;78.78;98949.20;1697169;83;28899;-67
2021/01/22 00:13:13;;;;;;;67.50;32.80;;;;;;;4.29;78.73;98945.28;1694221;83;27271;-71
2021/01/22 00:15:39;;;;;;;61.73;31.57;;;;;;;4.24;78.53;98950.13;1701368;83;22483;-67
2021/01/22 00:18:05;;;;;;;61.13;30.90;;;;;;;4.24;78.63;98940.14;1693042;83;27061;-68
2021/01/22 00:20:31;;;;;;;61.97;32.27;;;;;;;4.24;78.49;98935.75;1695023;83;25231;-69
2021/01/22 00:22:56;;;;;;;64.62;32.95;;;;;;;4.19;78.41;98936.66;1691591;83;28259;-68
2021/01/22 00:25:22;;;;;;;61.88;32.28;;;;;;;4.15;78.50;98927.48;1696623;83;27309;-67
2021/01/22 00:27:48;;;;;;;63.83;31.40;;;;;;;4.10;78.63;98926.61;1699237;83;21199;-67
2021/01/22 00:30:14;;;;;;;62.93;31.40;;;;;;;4.12;78.60;98927.27;1699024;83;27315;-68
2021/01/22 00:32:40;;;;;;;61.05;30.23;;;;;;;4.12;78.47;98922.55;1696472;83;21225;-68
2021/01/22 00:35:06;;;;;;;59.75;31.07;;;;;;;4.10;78.50;98920.54;1689662;83;28751;-68
2021/01/22 00:37:32;;;;;;;63.60;32.42;;;;;;;4.12;78.43;98910.79;1690284;83;21213;-67
2021/01/22 00:39:58;;;;;;;64.07;32.40;;;;;;;4.14;78.28;98915.38;1697668;83;22081;-69
2021/01/22 00:42:24;;;;;;;70.42;33.95;;;;;;;4.14;78.19;98903.62;1698021;83;25881;-68
2021/01/22 00:44:50;;;;;;;66.75;33.65;;;;;;;4.10;77.87;98897.03;1698600;83;25349;-68
2021/01/22 00:47:15;;;;;;;66.92;33.67;;;;;;;4.07;77.84;98902.55;1694209;83;28380;-68
2021/01/22 00:49:41;;;;;;;64.25;32.98;;;;;;;4.10;77.83;98899.64;1693305;83;26842;-68
2021/01/22 00:52:07;;;;;;;64.72;33.00;;;;;;;3.99;77.95;98901.96;1692304;83;21372;-68
2021/01/22 00:54:32;;;;;;;63.30;32.57;;;;;;;3.87;78.51;98901.34;1678622;83;26924;-69
2021/01/22 00:56:58;;;;;;;63.27;33.93;;;;;;;3.77;78.83;98901.86;1678892;85;24210;-68
2021/01/22 00:59:24;;;;;;;64.25;33.13;;;;;;;3.70;78.99;98900.80;1678309;83;28328;-68
2021/01/22 01:01:50;;;;;;;66.90;34.53;;;;;;;3.69;79.01;98896.05;1679014;85;26989;-68
2021/01/22 01:04:16;;;;;;;71.65;34.90;;;;;;;3.66;79.24;98909.38;1678675;85;21955;-69
2021/01/22 01:06:42;;;;;;;65.05;35.25;;;;;;;3.71;79.05;98901.13;1678250;84;26508;-68
2021/01/22 01:09:08;;;;;;;67.65;34.25;;;;;;;3.71;78.93;98904.58;1678731;83;21156;-68
2021/01/22 01:11:34;;;;;;;67.93;33.67;;;;;;;3.70;78.96;98899.50;1677763;83;21238;-68
2021/01/22 01:14:00;;;;;;;63.87;32.93;;;;;;;3.75;78.94;98899.39;1678764;83;26754;-68
2021/01/22 01:16:25;;;;;;;62.43;33.28;;;;;;;3.74;78.93;98890.39;1666762;85;21678;-69
2021/01/22 01:18:51;;;;;;;62.33;33.02;;;;;;;3.78;78.78;98891.77;1666767;85;27252;-67
2021/01/22 01:21:17;;;;;;;65.28;33.48;;;;;;;3.80;78.60;98886.39;1678050;85;24531;-69
2021/01/22 01:23:43;;;;;;;71.60;35.08;;;;;;;3.76;78.61;98891.91;1677833;85;28449;-67
2021/01/22 01:26:08;;;;;;;70.62;35.33;;;;;;;3.70;78.69;98892.48;1675123;83;26745;-66
2021/01/22 01:28:34;;;;;;;70.93;37.27;;;;;;;3.70;78.82;98889.05;1679847;83;21458;-67
2021/01/22 01:31:00;;;;;;;69.55;37.50;;;;;;;3.71;78.76;98886.77;1678618;85;21224;-68
2021/01/22 01:33:26;;;;;;;70.50;37.27;;;;;;;3.71;78.59;98890.68;1678415;85;24755;-68
2021/01/22 01:35:52;;;;;;;64.60;34.00;;;;;;;3.69;78.68;98892.62;1679860;83;28553;-68
2021/01/22 01:38:19;;;;;;;63.80;34.53;;;;;;;3.65;78.79;98891.25;1679095;85;21227;-67
2021/01/22 01:40:45;;;;;;;63.45;33.70;;;;;;;3.58;78.89;98886.59;1679773;85;21759;-68
2021/01/22 01:43:11;;;;;;;66.80;34.48;;;;;;;3.56;78.93;98875.48;1666684;84;21244;-67
2021/01/22 01:45:39;;;;;;;63.60;34.20;;;;;;;3.63;78.81;98887.97;1674161;85;25458;-68
2021/01/22 01:48:06;;;;;;;;;;;;;;;3.63;78.57;98880.95;1671331;84;21678;-69
2021/01/22 01:50:32;;;;;;;63.17;34.08;;;;;;;3.57;78.53;98881.06;1665382;85;20400;-67
2021/01/22 01:52:59;;;;;;;68.87;35.85;;;;;;;3.59;78.43;98885.64;1662797;85;21520;-69
2021/01/22 01:55:25;;;;;;;68.52;35.98;;;;;;;3.52;78.58;98881.95;1668554;84;21606;-68
2021/01/22 01:57:51;;;;;;;69.70;35.87;;;;;;;3.44;78.65;98887.06;1668321;85;22796;-68
2021/01/22 02:00:17;;;;;;;63.40;33.53;;;;;;;3.41;78.86;98883.43;1671912;85;28373;-67
2021/01/22 02:02:43;;;;;;;61.77;32.60;;;;;;;3.41;79.01;98874.30;1668343;84;21204;-67
2021/01/22 02:05:10;;;;;;;57.90;31.57;;;;;;;3.39;79.03;98868.41;1668410;84;21197;-68
2021/01/22 02:07:36;;;;;;;59.35;32.63;;;;;;;3.42;78.83;98868.13;1667068;85;21101;-67
2021/01/22 02:10:02;;;;;;;59.67;33.13;;;;;;;3.42;78.69;98865.52;1668915;85;22801;-68
2021/01/22 02:12:28;;;;;;;58.00;32.53;;;;;;;3.42;78.61;98860.30;1667431;85;21240;-68
2021/01/22 02:14:54;;;;;;;59.55;32.98;;;;;;;3.35;78.74;98861.81;1669913;85;26703;-67
2021/01/22 02:17:20;;;;;;;62.15;32.38;;;;;;;3.32;78.68;98851.66;1665574;84;21317;-69
2021/01/22 02:20:15;;;;;;;58.43;31.30;;;;;;;3.23;78.96;98855.47;1667123;84;24565;-68
2021/01/22 02:22:41;;;;;;;53.75;29.75;;;;;;;3.18;79.30;98843.31;1665315;84;21204;-68
2021/01/22 02:25:08;;;;;;;54.50;28.85;;;;;;;3.13;79.77;98846.83;1669016;85;28293;-68
2021/01/22 02:27:35;;;;;;;65.72;30.48;;;;;;;3.08;79.82;98833.86;1662358;85;21652;-68
2021/01/22 02:30:05;;;;;;;55.17;30.85;;;;;;;3.11;79.84;98840.94;1667049;85;21554;-67
2021/01/22 02:32:33;;;;;;;57.88;30.90;;;;;;;3.10;79.75;98845.81;1677096;84;21775;-66
2021/01/22 02:37:25;;;;;;;55.43;30.68;;;;;;;3.24;79.53;98838.02;1863357;75;27448;-67
2021/01/22 02:39:52;;;;;;;51.73;28.77;;;;;;;3.17;79.49;98839.08;1830036;77;26735;-66
2021/01/22 02:42:19;;;;;;;57.33;28.10;;;;;;;3.15;79.65;98827.94;1810255;77;21313;-66
2021/01/22 02:44:45;;;;;;;50.00;27.30;;;;;;;3.19;79.76;98824.09;1826669;77;21049;-67
2021/01/22 02:47:11;;;;;;;54.40;27.93;;;;;;;3.15;79.75;98822.72;1829586;77;24725;-67
2021/01/22 02:49:37;;;;;;;54.13;29.02;;;;;;;3.10;79.67;98809.30;1833538;77;21172;-67
2021/01/22 02:52:04;;;;;;;54.45;29.87;;;;;;;3.18;79.74;98808.09;1829979;77;21035;-68
2021/01/22 02:54:30;;;;;;;58.35;29.37;;;;;;;3.18;79.65;98807.28;1831364;77;21056;-67
2021/01/22 02:57:22;;;;;;;53.83;30.27;;;;;;;3.21;79.57;98803.89;1827488;77;26311;-67
2021/01/22 03:00:15;;;;;;;57.25;29.65;;;;;;;3.19;79.63;98798.02;1833287;77;21160;-67
2021/01/22 03:03:20;;;;;;;53.85;27.30;;;;;;;3.22;79.62;98797.73;1826777;77;21153;-69
2021/01/22 03:05:45;;;;;;;54.58;27.62;;;;;;;3.13;79.72;98784.72;1825851;77;21209;-68
2021/01/22 03:08:15;;;;;;;53.52;27.73;;;;;;;3.07;80.10;98787.41;1830074;77;21505;-68
2021/01/22 03:10:41;;;;;;;52.30;27.52;;;;;;;3.15;80.02;98791.91;1830420;77;21182;-68
2021/01/22 03:13:07;;;;;;;55.45;28.87;;;;;;;3.19;79.90;98800.62;1828382;77;21180;-68
2021/01/22 03:15:34;;;;;;;49.70;28.25;;;;;;;3.19;79.91;98795.41;1828450;77;28352;-67
2021/01/22 03:18:17;;;;;;;58.73;29.55;;;;;;;3.20;79.82;98797.05;1830820;77;21235;-67
2021/01/22 03:20:45;;;;;;;55.83;29.85;;;;;;;3.17;79.76;98799.95;1827528;77;21204;-67
2021/01/22 03:23:11;;;;;;;53.78;28.92;;;;;;;3.17;79.92;98797.34;1830166;77;21207;-67
2021/01/22 03:25:37;;;;;;;55.60;27.75;;;;;;;3.18;79.86;98784.62;1829609;77;21222;-67
2021/01/22 03:28:05;;;;;;;49.53;27.45;;;;;;;3.12;79.89;98777.36;1827067;77;28869;-68
2021/01/22 03:30:31;;;;;;;53.40;28.10;;;;;;;3.11;80.13;98784.87;1830149;77;21164;-67
2021/01/22 03:32:57;;;;;;;49.88;28.47;;;;;;;3.16;80.16;98775.31;1829710;77;21419;-67
2021/01/22 03:35:23;;;;;;;51.02;28.57;;;;;;;3.15;79.85;98774.47;1829866;76;21165;-67
2021/01/22 03:37:49;;;;;;;51.80;29.00;;;;;;;3.15;79.91;98771.86;1829992;77;22223;-67
2021/01/22 03:40:15;;;;;;;51.53;28.38;;;;;;;3.19;79.81;98768.02;1827506;77;28912;-67
2021/01/22 03:42:44;;;;;;;60.65;27.73;;;;;;;3.21;79.63;98772.59;1825693;77;21223;-68
2021/01/22 03:45:11;;;;;;;54.23;29.10;;;;;;;3.22;79.50;98766.42;1831837;77;21344;-69
2021/01/22 03:47:37;;;;;;;50.80;26.70;;;;;;;3.14;79.83;98755.89;1827424;77;21195;-68
2021/01/22 03:50:04;;;;;;;47.53;25.85;;;;;;;3.07;80.35;98759.21;1834841;77;24475;-70
2021/01/22 03:52:29;;;;;;;48.25;26.55;;;;;;;3.09;80.61;98760.69;1828221;77;21164;-69
2021/01/22 03:54:55;;;;;;;54.30;28.45;;;;;;;3.04;80.72;98748.57;1831166;77;27284;-68
2021/01/22 03:57:21;;;;;;;52.15;27.58;;;;;;;3.00;80.89;98743.32;1829947;77;21623;-67
2021/01/22 03:59:46;;;;;;;51.13;27.23;;;;;;;3.05;80.92;98754.14;1827545;77;26569;-68
2021/01/22 04:02:12;;;;;;;50.90;26.17;;;;;;;3.09;80.73;98752.87;1827303;77;24694;-70
2021/01/22 04:04:39;;;;;;;46.98;24.92;;;;;;;3.10;80.57;98759.73;1830199;77;28309;-68
2021/01/22 04:07:04;;;;;;;46.05;24.55;;;;;;;3.18;80.44;98751.20;1827887;77;21188;-68
2021/01/22 04:09:30;;;;;;;49.70;25.97;;;;;;;3.20;80.29;98755.32;1832884;77;21225;-68
2021/01/22 04:11:59;;;;;;;53.73;26.60;;;;;;;3.25;80.25;98752.28;1827506;77;25075;-68
2021/01/22 04:14:25;;;;;;;48.90;25.80;;;;;;;3.31;80.10;98746.48;1830620;77;21573;-69
2021/01/22 04:16:57;;;;;;;47.08;25.88;;;;;;;3.34;80.02;98729.70;1826555;77;28986;-69
2021/01/22 04:19:24;;;;;;;49.42;25.35;;;;;;;3.39;79.94;98727.50;1826280;77;21172;-68
2021/01/22 04:21:50;;;;;;;46.80;26.33;;;;;;;3.33;79.97;98709.81;1832149;77;21204;-68
2021/01/22 04:24:15;;;;;;;47.77;26.37;;;;;;;3.31;80.06;98708.66;1833463;76;23578;-67
2021/01/22 04:26:41;;;;;;;47.07;24.53;;;;;;;3.30;80.16;98701.78;1828054;76;20931;-68
2021/01/22 04:29:10;;;;;;;41.63;22.82;;;;;;;3.29;80.32;98699.32;1827669;77;27502;-69
2021/01/22 04:31:36;;;;;;;43.78;23.52;;;;;;;3.27;80.49;98699.96;1827054;77;21200;-69
2021/01/22 04:34:01;;;;;;;44.80;24.33;;;;;;;3.30;80.61;98706.19;1826608;77;21259;-69
2021/01/22 04:36:27;;;;;;;44.53;23.80;;;;;;;3.31;80.52;98707.35;1827751;77;25217;-68
2021/01/22 04:38:53;;;;;;;42.10;22.87;;;;;;;3.34;80.47;98708.83;1820067;77;24693;-69
2021/01/22 04:41:19;;;;;;;45.48;24.18;;;;;;;3.38;80.44;98710.19;1813194;77;28745;-68
2021/01/22 04:43:44;;;;;;;46.58;24.37;;;;;;;3.43;80.30;98714.97;1816966;77;26715;-69
2021/01/22 04:46:11;;;;;;;45.52;24.77;;;;;;;3.45;80.27;98709.95;1816079;77;21856;-69
2021/01/22 04:48:39;;;;;;;45.92;23.45;;;;;;;3.46;80.35;98712.08;1814487;77;21117;-69
2021/01/22 04:51:05;;;;;;;43.35;23.15;;;;;;;3.47;80.35;98709.81;1815769;77;21151;-69
2021/01/22 04:53:32;;;;;;;38.30;20.82;;;;;;;3.45;80.42;98706.05;1815298;77;28284;-69
2021/01/22 04:55:58;;;;;;;37.98;21.12;;;;;;;3.46;80.50;98696.41;1819459;77;21180;-69
2021/01/22 04:58:24;;;;;;;41.77;21.33;;;;;;;3.38;80.53;98681.48;1817810;77;21870;-68
2021/01/22 05:00:50;;;;;;;41.73;22.25;;;;;;;3.41;80.58;98687.23;1818303;77;26667;-68
2021/01/22 05:03:16;;;;;;;40.28;22.90;;;;;;;3.35;80.61;98677.87;1815659;77;21145;-68
2021/01/22 05:05:42;;;;;;;43.87;22.75;;;;;;;3.39;80.57;98676.62;1816644;77;21174;-68
2021/01/22 05:08:07;;;;;;;37.45;22.00;;;;;;;3.40;80.53;98675.63;1814806;77;26777;-68
2021/01/22 05:10:33;;;;;;;43.42;23.05;;;;;;;3.41;80.46;98675.98;1814873;77;22102;-68
2021/01/22 05:12:59;;;;;;;37.50;21.03;;;;;;;3.36;80.62;98673.00;1815914;77;25100;-68
2021/01/22 05:15:25;;;;;;;36.17;20.37;;;;;;;3.35;80.67;98679.17;1815924;77;24737;-69
2021/01/22 05:18:03;;;;;;;36.15;20.00;;;;;;;3.34;80.95;98678.36;1818194;77;21217;-69
2021/01/22 05:20:37;;;;;;;37.95;21.23;;;;;;;3.39;80.83;98672.70;1815524;77;21135;-68
2021/01/22 05:23:07;;;;;;;40.25;21.02;;;;;;;3.41;80.78;98665.54;1817117;77;22339;-68
2021/01/22 05:25:34;;;;;;;42.65;21.80;;;;;;;3.40;80.77;98673.02;1816944;77;21225;-68
2021/01/22 05:27:59;;;;;;;36.83;19.98;;;;;;;3.38;80.86;98663.22;1816914;77;21486;-68
2021/01/22 05:30:31;;;;;;;41.75;20.15;;;;;;;3.40;80.64;98656.90;1815900;77;28376;-68
2021/01/22 05:33:16;;;;;;;38.78;19.23;;;;;;;3.36;80.81;98651.63;1816414;77;21757;-68
2021/01/22 05:35:42;;;;;;;36.03;19.73;;;;;;;3.37;80.92;98651.14;1821338;77;21218;-68
2021/01/22 05:38:08;;;;;;;33.28;18.67;;;;;;;3.38;81.09;98637.13;1800571;78;21125;-68
2021/01/22 05:40:34;;;;;;;35.70;19.27;;;;;;;3.39;81.00;98628.34;1810839;77;23822;-68
2021/01/22 05:43:00;;;;;;;37.48;20.05;;;;;;;3.39;81.00;98624.44;1813768;77;28830;-68
2021/01/22 05:45:46;;;;;;;35.52;19.48;;;;;;;3.37;81.10;98620.66;1811842;77;26756;-67
2021/01/22 05:48:23;;;;;;;35.20;19.75;;;;;;;3.42;81.03;98615.00;1810627;77;21333;-68
2021/01/22 05:50:59;;;;;;;34.33;18.52;;;;;;;3.34;81.24;98614.91;1816607;77;21173;-69
2021/01/22 05:53:26;;;;;;;36.42;18.60;;;;;;;3.31;81.40;98608.67;1815874;77;21157;-70
2021/01/22 05:56:13;;;;;;;33.50;18.45;;;;;;;3.27;81.70;98612.08;1815635;77;21216;-68
2021/01/22 05:58:42;;;;;;;34.70;18.52;;;;;;;3.29;81.80;98619.75;1811594;77;22542;-68
2021/01/22 06:01:13;;;;;;;35.65;18.90;;;;;;;3.33;81.69;98628.94;1811598;77;21331;-69
2021/01/22 06:03:45;;;;;;;35.05;19.30;;;;;;;3.39;81.57;98644.00;1814697;77;21126;-69
2021/01/22 06:08:59;;;;;;;33.92;19.15;;;;;;;3.50;81.56;98651.61;1833835;77;28193;-70
2021/01/22 06:11:31;;;;;;;37.13;17.42;;;;;;;3.47;81.49;98658.92;1791372;78;21062;-69
2021/01/22 06:13:59;;;;;;;31.60;16.65;;;;;;;3.47;81.56;98659.73;1791160;78;21278;-68
2021/01/22 06:16:27;;;;;;;30.05;16.57;;;;;;;3.45;81.67;98660.37;1791569;78;21398;-68
2021/01/22 06:19:08;;;;;;;31.27;16.95;;;;;;;3.53;81.51;98650.02;1793100;78;21451;-72
2021/01/22 06:21:42;;;;;;;33.15;18.15;;;;;;;3.54;81.50;98647.75;1757901;78;21034;-71
2021/01/22 06:24:08;;;;;;;31.07;16.77;;;;;;;3.55;81.57;98648.55;1790926;78;20999;-69
2021/01/22 06:26:37;;;;;;;30.37;17.75;;;;;;;3.62;81.48;98649.61;1791440;78;23051;-70
2021/01/22 06:29:05;;;;;;;30.52;16.75;;;;;;;3.63;81.39;98647.81;1787864;78;21238;-70
2021/01/22 06:31:31;;;;;;;27.82;15.75;;;;;;;3.63;81.45;98649.12;1789592;78;21108;-70
2021/01/22 06:33:57;;;;;;;30.57;16.15;;;;;;;3.61;81.56;98652.37;1789764;78;28353;-70
2021/01/22 06:36:22;;;;;;;29.23;15.18;;;;;;;3.61;81.63;98642.74;1787875;78;26699;-70
2021/01/22 06:38:49;;;;;;;29.05;15.78;;;;;;;3.67;81.64;98642.15;1787431;78;21803;-70
2021/01/22 06:41:15;;;;;;;33.23;16.65;;;;;;;3.74;81.35;98654.95;1791051;78;21228;-69
2021/01/22 06:43:41;;;;;;;28.87;15.90;;;;;;;3.76;81.37;98659.53;1793432;78;23794;-69
2021/01/22 06:46:11;;;;;;;26.50;14.95;;;;;;;3.74;81.43;98654.95;1765554;78;28804;-68
2021/01/22 06:49:01;;;;;;;32.17;15.53;;;;;;;3.80;81.50;98656.12;1788216;78;22217;-69
2021/01/22 06:51:33;;;;;;;29.27;14.78;;;;;;;3.88;81.35;98647.05;1789783;78;22069;-69
2021/01/22 06:54:21;;;;;;;28.40;14.70;;;;;;;3.89;81.47;98651.80;1789220;78;21181;-69
2021/01/22 06:57:07;;;;;;;29.18;15.00;;;;;;;3.88;81.20;98635.79;1789117;78;21188;-68
2021/01/22 06:59:40;;;;;;;20.80;11.05;;;;;;;3.94;81.16;98639.91;1785449;78;21184;-69
2021/01/22 07:02:34;;;;;;;28.83;15.30;;;;;;;4.01;81.14;98644.53;1789863;78;21232;-69
2021/01/22 07:05:00;;;;;;;26.10;15.25;;;;;;;3.91;81.08;98641.52;1788054;78;21581;-74
2021/01/22 07:07:46;;;;;;;28.13;15.40;;;;;;;4.01;81.17;98648.45;1786862;78;26397;-74
2021/01/22 07:10:12;;;;;;;29.60;14.70;;;;;;;3.98;81.17;98644.84;1789904;79;21154;-72
2021/01/22 07:12:41;;;;;;;26.87;14.98;;;;;;;3.95;81.23;98646.79;1792457;79;29055;-73
2021/01/22 07:15:26;;;;;;;26.80;15.23;;;;;;;3.98;81.35;98645.68;1780153;79;21658;-74
2021/01/22 07:17:59;;;;;;;29.18;15.25;;;;;;;4.01;81.38;98652.37;1777860;79;21422;-73
2021/01/22 07:20:28;;;;;;;26.77;15.05;;;;;;;4.03;81.33;98652.56;1777396;79;21214;-73
2021/01/22 07:22:59;;;;;;;27.70;14.25;;;;;;;4.12;81.22;98646.44;1778739;79;21216;-73
2021/01/22 07:25:38;;;;;;;27.90;14.05;;;;;;;4.18;81.11;98638.95;1776874;79;21237;-73
2021/01/22 07:28:13;;;;;;;26.37;13.45;;;;;;;4.20;80.98;98635.22;1775804;79;21232;-74
2021/01/22 07:30:39;;;;;;;25.48;13.72;;;;;;;4.25;80.94;98631.66;1774727;79;21201;-72
2021/01/22 07:33:36;;;;;;;26.93;13.83;;;;;;;4.31;80.89;98638.08;1779776;79;25068;-73
2021/01/22 07:36:16;;;;;;;26.80;14.28;;;;;;;4.34;80.72;98627.81;1779294;79;21185;-72
2021/01/22 07:38:42;;;;;;;30.92;14.47;;;;;;;4.41;80.57;98628.81;1777767;79;21192;-72
2021/01/22 07:41:09;;;;;;;25.30;14.53;;;;;;;4.31;80.55;98602.30;1777565;79;21181;-73
2021/01/22 07:43:35;;;;;;;28.53;14.00;;;;;;;4.48;80.42;98625.43;1776944;79;21230;-73
2021/01/22 07:46:10;;;;;;;28.17;13.78;;;;;;;4.48;80.40;98631.16;1778052;79;21331;-73
2021/01/22 07:48:37;;;;;;;27.73;14.38;;;;;;;4.47;80.45;98622.97;1777374;79;21189;-73
2021/01/22 07:51:33;;;;;;;24.53;13.93;;;;;;;4.54;80.56;98617.94;1777758;79;21177;-72
2021/01/22 07:53:59;;;;;;;30.02;14.33;;;;;;;4.61;80.34;98601.47;1775130;78;21465;-72
2021/01/22 07:56:39;;;;;;;25.72;13.25;;;;;;;4.61;80.34;98601.47;1779793;78;21222;-71
2021/01/22 07:59:05;;;;;;;28.20;14.33;;;;;;;4.58;80.46;98599.17;1777160;78;21271;-72
2021/01/22 08:01:31;;;;;;;30.65;14.23;;;;;;;4.73;80.34;98595.98;1779322;78;21743;-72
2021/01/22 08:03:57;;;;;;;28.47;13.98;;;;;;;4.74;80.23;98594.52;1779702;78;21448;-72
2021/01/22 08:06:23;;;;;;;27.70;13.60;;;;;;;4.77;80.26;98592.91;1776581;78;26741;-72
2021/01/22 08:09:07;;;;;;;26.50;14.25;;;;;;;4.84;80.14;98591.77;1775230;78;22075;-72
2021/01/22 08:11:35;;;;;;;24.12;13.60;;;;;;;4.85;80.16;98590.81;1778040;78;21549;-71
2021/01/22 08:14:01;;;;;;;29.23;15.48;;;;;;;4.97;79.98;98585.63;1773859;78;21217;-72
2021/01/22 08:16:27;;;;;;;25.92;14.13;;;;;;;5.03;79.92;98578.91;1775043;78;28352;-71
2021/01/22 08:18:52;;;;;;;26.87;14.43;;;;;;;5.09;79.95;98582.20;1779418;78;26791;-72
2021/01/22 08:21:19;;;;;;;27.60;14.58;;;;;;;5.18;79.86;98572.58;1775837;78;21999;-74
2021/01/22 08:23:47;;;;;;;24.40;14.40;;;;;;;5.23;79.59;98579.95;1757531;79;21176;-74
2021/01/22 08:26:13;;;;;;;;;;;;;;;5.29;79.36;98581.43;1779728;78;21214;-74
2021/01/22 08:28:39;;;;;;;27.20;14.50;;;;;;;5.36;79.40;98571.96;1779502;78;28425;-74
2021/01/22 08:31:08;;;;;;;25.32;14.18;;;;;;;5.38;79.24;98575.23;1777845;78;21228;-74
2021/01/22 08:33:35;;;;;;;31.20;15.75;;;;;;;5.42;79.15;98584.06;1775845;78;21209;-74
2021/01/22 08:36:01;;;;;;;27.13;15.58;;;;;;;5.46;78.97;98586.70;1775436;78;21199;-74
2021/01/22 08:38:26;;;;;;;26.23;14.93;;;;;;;5.46;79.14;98581.47;1776641;78;25324;-74
2021/01/22 08:41:01;;;;;;;29.57;14.60;;;;;;;5.52;79.17;98580.31;1753504;78;28466;-75
2021/01/22 08:43:24;;;;;;;26.35;14.75;;;;;;;5.61;78.97;98577.22;1779112;78;21234;-68
2021/01/22 08:46:12;;;;;;;28.17;14.78;;;;;;;5.64;78.83;98576.06;1775495;78;21455;-68
2021/01/22 08:48:50;;;;;;;25.32;15.30;;;;;;;5.72;78.75;98574.27;1774503;78;21229;-75
2021/01/22 08:51:27;;;;;;;;;;;;;;;5.71;78.59;98573.13;1778016;78;21271;-72
2021/01/22 08:53:53;;;;;;;;;;;;;;;5.75;78.41;98566.09;1779507;78;20284;-74
2021/01/22 08:56:21;;;;;;;27.15;14.53;;;;;;;5.75;78.44;98563.97;1777288;78;20457;-74
2021/01/22 08:59:12;;;;;;;28.23;15.60;;;;;;;5.81;78.25;98569.02;1774709;78;21558;-74
2021/01/22 09:02:12;;;;;;;28.38;15.48;;;;;;;5.84;78.28;98575.24;1744110;80;21173;-74
2021/01/22 09:04:38;;;;;;;28.15;15.25;;;;;;;5.79;78.12;98576.23;1812188;76;21482;-72
2021/01/22 09:07:16;;;;;;;28.65;15.15;;;;;;;5.82;78.23;98572.78;1811964;77;29589;-74
2021/01/22 09:09:51;;;;;;;30.50;16.77;;;;;;;5.96;78.04;98577.85;1814864;76;21209;-73
2021/01/22 09:12:26;;;;;;;26.62;15.25;;;;;;;5.91;77.87;98569.68;1811613;76;21460;-75
2021/01/22 09:15:03;;;;;;;26.50;15.35;;;;;;;6.02;77.80;98572.48;1814623;77;21224;-74
2021/01/22 09:17:43;;;;;;;27.87;15.88;;;;;;;5.97;77.72;98551.21;1813170;76;21643;-73
2021/01/22 09:20:26;;;;;;;28.38;16.27;;;;;;;6.14;77.52;98556.74;1817861;76;21218;-73
2021/01/22 09:22:58;;;;;;;27.42;15.35;;;;;;;6.18;77.55;98559.34;1788946;76;21231;-74
2021/01/22 09:25:26;;;;;;;26.97;14.38;;;;;;;6.16;77.56;98549.52;1816129;77;21084;-72
2021/01/22 09:27:52;;;;;;;25.08;14.45;;;;;;;6.21;77.63;98544.58;1780009;77;21201;-73
2021/01/22 09:30:20;;;;;;;25.35;14.93;;;;;;;6.27;77.47;98530.00;1814470;76;25619;-75
2021/01/22 09:32:48;;;;;;;31.68;15.70;;;;;;;6.31;77.40;98531.78;1811112;76;21524;-74
2021/01/22 09:35:14;;;;;;;25.37;15.10;;;;;;;6.32;77.17;98525.06;1814050;77;21180;-75
2021/01/22 09:37:40;;;;;;;28.02;15.75;;;;;;;6.36;77.15;98525.05;1819649;76;21922;-73
2021/01/22 09:40:08;;;;;;;24.30;14.13;;;;;;;6.35;77.08;98524.72;1815694;77;27077;-74
2021/01/22 09:42:34;;;;;;;26.05;14.25;;;;;;;6.40;77.09;98524.22;1816948;77;21347;-74
2021/01/22 09:45:00;;;;;;;24.30;13.43;;;;;;;6.41;77.06;98513.56;1813834;76;21185;-75
2021/01/22 09:47:26;;;;;;;23.87;13.90;;;;;;;6.45;77.04;98508.31;1814251;76;26706;-75
2021/01/22 09:49:51;;;;;;;24.18;13.53;;;;;;;6.47;76.85;98504.20;1813374;76;21890;-74
2021/01/22 09:52:17;;;;;;;28.07;14.53;;;;;;;6.49;76.85;98501.41;1813483;76;26613;-75
2021/01/22 09:54:45;;;;;;;25.95;15.60;;;;;;;6.51;76.69;98502.89;1817792;76;25335;-73
2021/01/22 09:57:11;;;;;;;;;;;;;;;6.50;76.53;98508.30;1816591;76;21192;-72
2021/01/22 09:59:37;;;;;;;24.92;13.80;;;;;;;6.55;76.80;98508.59;1817034;76;20174;-74
2021/01/22 10:02:03;;;;;;;22.00;13.03;;;;;;;6.54;76.68;98498.61;1814319;76;21239;-73
2021/01/22 10:04:29;;;;;;;26.62;13.88;;;;;;;6.57;76.53;98499.58;1792620;78;21196;-66
2021/01/22 10:06:54;;;;;;;25.17;13.30;;;;;;;6.64;76.65;98491.84;1827464;77;25942;-67
2021/01/22 10:09:20;;;;;;;23.27;13.58;;;;;;;6.74;76.38;98483.27;1829640;77;28911;-65
2021/01/22 10:11:46;;;;;;;27.67;14.38;;;;;;;6.83;76.06;98476.15;1827728;77;21181;-68
2021/01/22 10:14:12;;;;;;;26.60;14.13;;;;;;;6.85;76.05;98469.41;1831375;77;21077;-67
2021/01/22 10:16:38;;;;;;;27.10;14.38;;;;;;;6.91;75.73;98466.09;1830576;76;26574;-68
2021/01/22 10:19:04;;;;;;;31.85;15.93;;;;;;;6.92;75.73;98460.67;1836396;77;25379;-67
2021/01/22 10:21:29;;;;;;;28.25;15.43;;;;;;;6.99;75.69;98460.78;1829438;77;28364;-68
2021/01/22 10:23:55;;;;;;;26.70;15.93;;;;;;;7.06;75.57;98448.61;1825814;77;26757;-67
2021/01/22 10:26:21;;;;;;;26.33;14.40;;;;;;;7.02;75.32;98446.00;1828778;76;21409;-67
2021/01/22 10:28:48;;;;;;;25.77;14.28;;;;;;;7.07;75.32;98449.41;1825070;77;21577;-68
2021/01/22 10:31:14;;;;;;;24.63;14.10;;;;;;;7.10;75.70;98449.90;1833405;77;26739;-68
2021/01/22 10:33:40;;;;;;;24.63;13.88;;;;;;;7.15;75.35;98458.05;1830049;77;28462;-67
2021/01/22 10:36:07;;;;;;;26.62;13.90;;;;;;;7.27;75.09;98447.13;1832385;77;20929;-74
2021/01/22 10:38:35;;;;;;;26.42;13.45;;;;;;;7.34;75.04;98446.75;1831318;77;21224;-74
2021/01/22 10:41:01;;;;;;;28.98;15.03;;;;;;;7.41;74.70;98453.41;1828136;77;21644;-71
2021/01/22 10:43:27;;;;;;;23.45;14.28;;;;;;;7.47;74.89;98444.34;1829039;77;21189;-72
2021/01/22 10:45:53;;;;;;;26.70;14.35;;;;;;;7.51;74.48;98450.85;1826935;77;28522;-75
2021/01/22 10:48:19;;;;;;;24.07;13.15;;;;;;;7.53;74.34;98446.23;1838813;77;20962;-73
2021/01/22 10:50:45;;;;;;;24.90;13.10;;;;;;;7.58;74.08;98436.50;1829506;77;21413;-75
2021/01/22 10:53:11;;;;;;;21.85;12.37;;;;;;;7.53;74.41;98433.09;1834049;77;21177;-73
2021/01/22 10:55:36;;;;;;;22.98;13.35;;;;;;;7.67;74.44;98418.86;1829682;77;25325;-73
2021/01/22 10:58:02;;;;;;;22.82;12.75;;;;;;;7.72;74.09;98409.92;1826478;77;28619;-71
2021/01/22 11:00:28;;;;;;;26.45;13.98;;;;;;;7.61;74.12;98378.34;1831207;76;20886;-73
2021/01/22 11:02:54;;;;;;;23.32;11.75;;;;;;;7.91;73.80;98401.51;1827025;77;21881;-72
2021/01/22 11:05:20;;;;;;;26.07;13.28;;;;;;;8.02;73.18;98402.05;1815958;76;26836;-72
2021/01/22 11:07:45;;;;;;;28.38;13.58;;;;;;;8.15;72.67;98402.20;1780824;78;25275;-72
2021/01/22 11:10:13;;;;;;;25.00;13.62;;;;;;;8.14;72.49;98396.65;1819447;76;28601;-74
2021/01/22 11:12:38;;;;;;;23.18;12.43;;;;;;;8.18;72.64;98404.47;1814942;76;27603;-71
2021/01/22 11:15:06;;;;;;;26.50;11.93;;;;;;;8.22;72.68;98384.70;1816326;76;21599;-70
2021/01/22 11:17:32;;;;;;;;;;;;;;;8.26;72.86;98394.34;1817658;76;21589;-72
2021/01/22 11:19:57;;;;;;;20.43;10.72;;;;;;;8.27;72.32;98381.01;1815952;76;20174;-72
2021/01/22 11:22:23;;;;;;;21.87;11.53;;;;;;;8.37;72.60;98390.42;1816142;76;21075;-74
2021/01/22 11:24:49;;;;;;;23.50;12.10;;;;;;;8.44;72.30;98391.35;1813934;77;21841;-74
2021/01/22 11:27:15;;;;;;;19.90;11.60;;;;;;;8.53;72.07;98379.71;1813173;76;21225;-75
2021/01/22 11:29:41;;;;;;;24.80;11.65;;;;;;;8.57;71.72;98385.41;1816118;76;21002;-72
2021/01/22 11:32:07;;;;;;;22.00;11.97;;;;;;;8.63;71.49;98385.47;1813538;76;21204;-74
2021/01/22 11:34:34;;;;;;;24.35;11.25;;;;;;;8.69;71.41;98385.73;1821702;76;21098;-74
2021/01/22 11:37:00;;;;;;;22.05;10.82;;;;;;;8.73;71.31;98394.87;1812141;76;21229;-72
2021/01/22 11:39:26;;;;;;;22.10;10.93;;;;;;;8.78;71.28;98388.05;1815798;76;21179;-71